sensor_id;sensor_type;location;lat;lon;timestamp;pressure;altitude;pressure_sealevel;temperature;humidity
64967;BME280;51710;38.732;-121.358;2022-11-27T00:02:23;101448.81;;;19.19;37.66
64967;BME280;51710;38.732;-121.358;2022-11-27T00:04:50;101448.81;;;19.19;37.60
64967;BME280;51710;38.732;-121.358;2022-11-27T00:07:16;101442.13;;;19.15;38.18
64967;BME280;51710;38.732;-121.358;2022-11-27T00:09:43;101443.53;;;19.11;38.09
64967;BME280;51710;38.732;-121.358;2022-11-27T00:12:09;101430.81;;;19.05;38.35
64967;BME280;51710;38.732;-121.358;2022-11-27T00:14:35;101431.97;;;18.96;38.39
64967;BME280;51710;38.732;-121.358;2022-11-27T00:17:02;101444.78;;;18.87;38.79
64967;BME280;51710;38.732;-121.358;2022-11-27T00:19:28;101434.75;;;18.81;38.86
64967;BME280;51710;38.732;-121.358;2022-11-27T00:21:55;101431.34;;;18.73;38.98
64967;BME280;51710;38.732;-121.358;2022-11-27T00:24:21;101431.69;;;18.63;38.95
64967;BME280;51710;38.732;-121.358;2022-11-27T00:26:48;101434.03;;;18.52;39.23
64967;BME280;51710;38.732;-121.358;2022-11-27T00:29:14;101427.81;;;18.37;39.31
64967;BME280;51710;38.732;-121.358;2022-11-27T00:31:43;101432.44;;;18.22;39.50
64967;BME280;51710;38.732;-121.358;2022-11-27T00:34:12;101424.34;;;18.07;39.82
64967;BME280;51710;38.732;-121.358;2022-11-27T00:36:38;101427.34;;;17.97;39.98
64967;BME280;51710;38.732;-121.358;2022-11-27T00:39:05;101432.84;;;17.89;40.26
64967;BME280;51710;38.732;-121.358;2022-11-27T00:41:31;101425.59;;;17.75;40.44
64967;BME280;51710;38.732;-121.358;2022-11-27T00:43:58;101432.09;;;17.66;40.58
64967;BME280;51710;38.732;-121.358;2022-11-27T00:46:27;101431.53;;;17.56;40.78
64967;BME280;51710;38.732;-121.358;2022-11-27T00:48:54;101421.88;;;17.47;40.69
64967;BME280;51710;38.732;-121.358;2022-11-27T00:51:22;101418.22;;;17.40;40.97
64967;BME280;51710;38.732;-121.358;2022-11-27T00:53:49;101415.59;;;17.32;41.00
64967;BME280;51710;38.732;-121.358;2022-11-27T00:56:20;101421.09;;;17.24;41.06
64967;BME280;51710;38.732;-121.358;2022-11-27T00:58:47;101416.78;;;17.15;41.30
64967;BME280;51710;38.732;-121.358;2022-11-27T01:01:28;101418.59;;;17.00;41.60
64967;BME280;51710;38.732;-121.358;2022-11-27T01:03:59;101409.28;;;16.88;41.57
64967;BME280;51710;38.732;-121.358;2022-11-27T01:06:27;101407.84;;;16.77;41.69
64967;BME280;51710;38.732;-121.358;2022-11-27T01:08:54;101406.09;;;16.70;41.90
64967;BME280;51710;38.732;-121.358;2022-11-27T01:11:23;101408.00;;;16.61;41.99
64967;BME280;51710;38.732;-121.358;2022-11-27T01:13:55;101404.50;;;16.53;42.13
64967;BME280;51710;38.732;-121.358;2022-11-27T01:16:23;101404.91;;;16.42;42.21
64967;BME280;51710;38.732;-121.358;2022-11-27T01:18:52;101415.22;;;16.30;42.54
64967;BME280;51710;38.732;-121.358;2022-11-27T01:21:20;101415.81;;;16.18;42.71
64967;BME280;51710;38.732;-121.358;2022-11-27T01:23:48;101419.56;;;16.01;43.00
64967;BME280;51710;38.732;-121.358;2022-11-27T01:26:15;101413.28;;;15.86;42.98
64967;BME280;51710;38.732;-121.358;2022-11-27T01:28:42;101414.84;;;15.72;43.21
64967;BME280;51710;38.732;-121.358;2022-11-27T01:31:16;101410.38;;;15.48;43.60
64967;BME280;51710;38.732;-121.358;2022-11-27T01:33:43;101415.41;;;15.27;44.10
64967;BME280;51710;38.732;-121.358;2022-11-27T01:36:11;101414.28;;;15.14;44.41
64967;BME280;51710;38.732;-121.358;2022-11-27T01:38:38;101415.78;;;15.08;44.64
64967;BME280;51710;38.732;-121.358;2022-11-27T01:41:25;101408.44;;;15.02;44.38
64967;BME280;51710;38.732;-121.358;2022-11-27T01:43:57;101414.78;;;15.01;44.72
64967;BME280;51710;38.732;-121.358;2022-11-27T01:46:27;101412.28;;;15.00;44.72
64967;BME280;51710;38.732;-121.358;2022-11-27T01:51:26;101411.44;;;14.91;44.83
64967;BME280;51710;38.732;-121.358;2022-11-27T01:53:53;101410.44;;;14.84;44.58
64967;BME280;51710;38.732;-121.358;2022-11-27T01:56:21;101408.75;;;14.75;45.13
64967;BME280;51710;38.732;-121.358;2022-11-27T01:58:49;101422.00;;;14.60;45.17
64967;BME280;51710;38.732;-121.358;2022-11-27T02:01:16;101421.13;;;14.44;45.57
64967;BME280;51710;38.732;-121.358;2022-11-27T02:03:42;101415.53;;;14.21;45.75
64967;BME280;51710;38.732;-121.358;2022-11-27T02:06:11;101418.00;;;14.07;46.15
64967;BME280;51710;38.732;-121.358;2022-11-27T02:08:39;101428.31;;;13.94;46.33
64967;BME280;51710;38.732;-121.358;2022-11-27T02:11:12;101422.72;;;13.79;46.82
64967;BME280;51710;38.732;-121.358;2022-11-27T02:29:49;101426.41;;;13.01;48.00
64967;BME280;51710;38.732;-121.358;2022-11-27T02:32:57;101428.34;;;12.91;48.41
64967;BME280;51710;38.732;-121.358;2022-11-27T02:35:27;101420.88;;;12.77;48.98
64967;BME280;51710;38.732;-121.358;2022-11-27T02:38:09;101426.75;;;12.63;49.30
64967;BME280;51710;38.732;-121.358;2022-11-27T02:40:53;101428.69;;;12.53;49.23
64967;BME280;51710;38.732;-121.358;2022-11-27T02:43:40;101434.78;;;12.45;49.18
64967;BME280;51710;38.732;-121.358;2022-11-27T02:46:09;101433.00;;;12.36;49.39
64967;BME280;51710;38.732;-121.358;2022-11-27T02:48:50;101433.91;;;12.27;50.17
64967;BME280;51710;38.732;-121.358;2022-11-27T02:51:22;101431.31;;;12.18;50.04
64967;BME280;51710;38.732;-121.358;2022-11-27T02:53:52;101429.53;;;12.09;50.19
64967;BME280;51710;38.732;-121.358;2022-11-27T02:56:25;101438.28;;;12.01;50.60
64967;BME280;51710;38.732;-121.358;2022-11-27T02:58:55;101445.06;;;11.96;50.95
64967;BME280;51710;38.732;-121.358;2022-11-27T03:01:22;101438.91;;;11.86;51.05
64967;BME280;51710;38.732;-121.358;2022-11-27T03:03:55;101453.03;;;11.78;51.41
64967;BME280;51710;38.732;-121.358;2022-11-27T03:06:30;101458.78;;;11.74;51.46
64967;BME280;51710;38.732;-121.358;2022-11-27T03:12:00;101457.09;;;11.63;51.87
64967;BME280;51710;38.732;-121.358;2022-11-27T03:14:28;101460.06;;;11.60;51.80
64967;BME280;51710;38.732;-121.358;2022-11-27T03:17:51;101470.50;;;11.54;52.28
64967;BME280;51710;38.732;-121.358;2022-11-27T03:20:01;101469.94;;;11.41;52.63
64967;BME280;51710;38.732;-121.358;2022-11-27T03:22:30;101466.63;;;11.29;52.71
64967;BME280;51710;38.732;-121.358;2022-11-27T03:24:58;101469.44;;;11.18;52.34
64967;BME280;51710;38.732;-121.358;2022-11-27T03:27:31;101467.63;;;11.09;52.91
64967;BME280;51710;38.732;-121.358;2022-11-27T03:30:01;101458.94;;;10.97;52.95
64967;BME280;51710;38.732;-121.358;2022-11-27T03:32:30;101459.50;;;10.91;53.19
64967;BME280;51710;38.732;-121.358;2022-11-27T03:34:57;101468.78;;;10.87;53.41
64967;BME280;51710;38.732;-121.358;2022-11-27T03:37:23;101470.88;;;10.84;53.87
64967;BME280;51710;38.732;-121.358;2022-11-27T03:39:51;101471.72;;;10.84;54.07
64967;BME280;51710;38.732;-121.358;2022-11-27T03:45:06;101475.06;;;10.86;54.39
64967;BME280;51710;38.732;-121.358;2022-11-27T03:50:40;101482.09;;;10.68;54.56
64967;BME280;51710;38.732;-121.358;2022-11-27T03:53:23;101479.69;;;10.56;54.79
64967;BME280;51710;38.732;-121.358;2022-11-27T03:56:17;101476.19;;;10.46;54.93
64967;BME280;51710;38.732;-121.358;2022-11-27T03:58:53;101483.16;;;10.37;55.73
64967;BME280;51710;38.732;-121.358;2022-11-27T04:01:23;101496.03;;;10.32;55.57
64967;BME280;51710;38.732;-121.358;2022-11-27T04:03:50;101500.25;;;10.25;55.87
64967;BME280;51710;38.732;-121.358;2022-11-27T04:06:17;101500.25;;;10.25;56.07
64967;BME280;51710;38.732;-121.358;2022-11-27T04:08:45;101488.59;;;10.26;55.79
64967;BME280;51710;38.732;-121.358;2022-11-27T04:11:12;101496.00;;;10.23;55.92
64967;BME280;51710;38.732;-121.358;2022-11-27T04:13:39;101495.72;;;10.16;56.11
64967;BME280;51710;38.732;-121.358;2022-11-27T04:16:06;101494.44;;;10.10;56.55
64967;BME280;51710;38.732;-121.358;2022-11-27T04:18:33;101500.97;;;10.06;56.64
64967;BME280;51710;38.732;-121.358;2022-11-27T04:20:59;101491.69;;;10.01;56.62
64967;BME280;51710;38.732;-121.358;2022-11-27T04:23:25;101502.63;;;9.98;56.72
64967;BME280;51710;38.732;-121.358;2022-11-27T04:25:52;101496.72;;;9.94;56.94
64967;BME280;51710;38.732;-121.358;2022-11-27T04:28:18;101488.16;;;9.91;56.55
64967;BME280;51710;38.732;-121.358;2022-11-27T04:30:50;101506.22;;;9.87;57.31
64967;BME280;51710;38.732;-121.358;2022-11-27T04:33:16;101503.97;;;9.83;57.46
64967;BME280;51710;38.732;-121.358;2022-11-27T04:35:43;101509.81;;;9.77;57.32
64967;BME280;51710;38.732;-121.358;2022-11-27T04:38:11;101504.75;;;9.74;57.89
64967;BME280;51710;38.732;-121.358;2022-11-27T04:40:37;101496.34;;;9.69;57.69
64967;BME280;51710;38.732;-121.358;2022-11-27T04:43:04;101500.94;;;9.67;57.82
64967;BME280;51710;38.732;-121.358;2022-11-27T04:45:30;101505.28;;;9.68;57.79
64967;BME280;51710;38.732;-121.358;2022-11-27T04:47:56;101513.25;;;9.68;57.91
64967;BME280;51710;38.732;-121.358;2022-11-27T04:50:23;101513.69;;;9.73;58.17
64967;BME280;51710;38.732;-121.358;2022-11-27T04:52:49;101507.84;;;9.79;58.16
64967;BME280;51710;38.732;-121.358;2022-11-27T04:55:16;101516.81;;;9.78;58.16
64967;BME280;51710;38.732;-121.358;2022-11-27T04:57:43;101512.03;;;9.72;58.19
64967;BME280;51710;38.732;-121.358;2022-11-27T05:00:09;101512.22;;;9.59;57.85
64967;BME280;51710;38.732;-121.358;2022-11-27T05:02:36;101508.28;;;9.54;58.00
64967;BME280;51710;38.732;-121.358;2022-11-27T05:05:03;101521.13;;;9.49;58.31
64967;BME280;51710;38.732;-121.358;2022-11-27T05:07:30;101519.72;;;9.45;58.52
64967;BME280;51710;38.732;-121.358;2022-11-27T05:09:56;101507.25;;;9.45;58.72
64967;BME280;51710;38.732;-121.358;2022-11-27T05:12:22;101505.84;;;9.41;58.58
64967;BME280;51710;38.732;-121.358;2022-11-27T05:14:49;101495.25;;;9.30;58.86
64967;BME280;51710;38.732;-121.358;2022-11-27T05:17:15;101492.88;;;9.27;58.90
64967;BME280;51710;38.732;-121.358;2022-11-27T05:19:42;101494.94;;;9.24;58.81
64967;BME280;51710;38.732;-121.358;2022-11-27T05:22:08;101499.09;;;9.17;59.10
64967;BME280;51710;38.732;-121.358;2022-11-27T05:24:35;101503.81;;;9.13;58.90
64967;BME280;51710;38.732;-121.358;2022-11-27T05:27:01;101507.97;;;9.06;58.81
64967;BME280;51710;38.732;-121.358;2022-11-27T05:29:28;101517.91;;;8.93;59.48
64967;BME280;51710;38.732;-121.358;2022-11-27T05:31:54;101516.13;;;8.82;59.50
64967;BME280;51710;38.732;-121.358;2022-11-27T05:34:21;101522.44;;;8.81;59.69
64967;BME280;51710;38.732;-121.358;2022-11-27T05:36:47;101522.31;;;8.83;59.99
64967;BME280;51710;38.732;-121.358;2022-11-27T05:39:14;101521.81;;;8.89;60.13
64967;BME280;51710;38.732;-121.358;2022-11-27T05:41:41;101519.50;;;8.84;60.35
64967;BME280;51710;38.732;-121.358;2022-11-27T05:44:13;101521.97;;;8.76;60.10
64967;BME280;51710;38.732;-121.358;2022-11-27T05:46:40;101528.63;;;8.71;60.20
64967;BME280;51710;38.732;-121.358;2022-11-27T05:49:11;101527.44;;;8.64;60.28
64967;BME280;51710;38.732;-121.358;2022-11-27T05:51:38;101527.69;;;8.61;60.68
64967;BME280;51710;38.732;-121.358;2022-11-27T05:54:05;101527.31;;;8.65;60.94
64967;BME280;51710;38.732;-121.358;2022-11-27T05:56:31;101523.69;;;8.66;60.72
64967;BME280;51710;38.732;-121.358;2022-11-27T05:58:58;101531.66;;;8.66;60.85
64967;BME280;51710;38.732;-121.358;2022-11-27T06:01:24;101526.34;;;8.66;60.62
64967;BME280;51710;38.732;-121.358;2022-11-27T06:03:51;101531.16;;;8.61;61.05
64967;BME280;51710;38.732;-121.358;2022-11-27T06:06:18;101520.09;;;8.56;61.09
64967;BME280;51710;38.732;-121.358;2022-11-27T06:08:46;101529.50;;;8.49;61.18
64967;BME280;51710;38.732;-121.358;2022-11-27T06:11:18;101531.69;;;8.44;61.48
64967;BME280;51710;38.732;-121.358;2022-11-27T06:13:45;101523.00;;;8.42;61.64
64967;BME280;51710;38.732;-121.358;2022-11-27T06:16:15;101526.06;;;8.38;61.28
64967;BME280;51710;38.732;-121.358;2022-11-27T06:18:42;101521.81;;;8.35;61.26
64967;BME280;51710;38.732;-121.358;2022-11-27T06:21:11;101528.22;;;8.33;61.51
64967;BME280;51710;38.732;-121.358;2022-11-27T06:23:38;101522.31;;;8.29;61.67
64967;BME280;51710;38.732;-121.358;2022-11-27T06:26:13;101521.72;;;8.26;61.93
64967;BME280;51710;38.732;-121.358;2022-11-27T06:28:40;101523.75;;;8.22;61.88
64967;BME280;51710;38.732;-121.358;2022-11-27T06:31:17;101517.00;;;8.18;61.77
64967;BME280;51710;38.732;-121.358;2022-11-27T06:33:45;101517.72;;;8.20;62.02
64967;BME280;51710;38.732;-121.358;2022-11-27T06:36:12;101513.63;;;8.16;61.80
64967;BME280;51710;38.732;-121.358;2022-11-27T06:38:39;101511.47;;;8.10;62.06
64967;BME280;51710;38.732;-121.358;2022-11-27T06:41:08;101501.31;;;8.04;61.91
64967;BME280;51710;38.732;-121.358;2022-11-27T06:43:35;101505.22;;;8.00;62.35
64967;BME280;51710;38.732;-121.358;2022-11-27T06:46:02;101496.41;;;7.99;62.13
64967;BME280;51710;38.732;-121.358;2022-11-27T06:48:29;101507.88;;;8.00;62.19
64967;BME280;51710;38.732;-121.358;2022-11-27T06:51:03;101509.41;;;8.02;62.28
64967;BME280;51710;38.732;-121.358;2022-11-27T06:53:32;101499.91;;;8.00;62.73
64967;BME280;51710;38.732;-121.358;2022-11-27T06:56:02;101501.84;;;7.98;62.10
64967;BME280;51710;38.732;-121.358;2022-11-27T06:58:28;101504.59;;;7.96;62.45
64967;BME280;51710;38.732;-121.358;2022-11-27T07:00:59;101499.19;;;7.87;62.24
64967;BME280;51710;38.732;-121.358;2022-11-27T07:03:26;101500.38;;;7.72;62.45
64967;BME280;51710;38.732;-121.358;2022-11-27T07:05:52;101500.50;;;7.59;62.69
64967;BME280;51710;38.732;-121.358;2022-11-27T07:08:19;101497.38;;;7.54;63.67
64967;BME280;51710;38.732;-121.358;2022-11-27T07:10:45;101489.75;;;7.50;63.88
64967;BME280;51710;38.732;-121.358;2022-11-27T07:13:12;101488.31;;;7.46;63.95
64967;BME280;51710;38.732;-121.358;2022-11-27T07:15:38;101486.13;;;7.40;64.16
64967;BME280;51710;38.732;-121.358;2022-11-27T07:18:05;101480.34;;;7.35;64.53
64967;BME280;51710;38.732;-121.358;2022-11-27T07:20:31;101473.38;;;7.34;64.95
64967;BME280;51710;38.732;-121.358;2022-11-27T07:22:57;101483.59;;;7.38;64.87
64967;BME280;51710;38.732;-121.358;2022-11-27T07:25:24;101476.63;;;7.48;64.88
64967;BME280;51710;38.732;-121.358;2022-11-27T07:27:50;101469.53;;;7.60;64.79
64967;BME280;51710;38.732;-121.358;2022-11-27T07:30:17;101472.91;;;7.73;65.13
64967;BME280;51710;38.732;-121.358;2022-11-27T07:32:44;101475.44;;;7.85;64.85
64967;BME280;51710;38.732;-121.358;2022-11-27T07:35:10;101477.97;;;7.98;64.42
64967;BME280;51710;38.732;-121.358;2022-11-27T07:37:37;101488.31;;;8.12;64.54
64967;BME280;51710;38.732;-121.358;2022-11-27T07:40:04;101481.22;;;8.24;64.04
64967;BME280;51710;38.732;-121.358;2022-11-27T07:42:31;101476.97;;;8.32;64.09
64967;BME280;51710;38.732;-121.358;2022-11-27T07:44:57;101465.16;;;8.36;63.61
64967;BME280;51710;38.732;-121.358;2022-11-27T07:47:24;101468.53;;;8.27;63.75
64967;BME280;51710;38.732;-121.358;2022-11-27T07:49:50;101459.75;;;8.16;63.49
64967;BME280;51710;38.732;-121.358;2022-11-27T07:52:17;101455.41;;;8.04;63.54
64967;BME280;51710;38.732;-121.358;2022-11-27T07:54:43;101451.78;;;7.93;63.48
64967;BME280;51710;38.732;-121.358;2022-11-27T07:57:10;101456.50;;;7.90;63.62
64967;BME280;51710;38.732;-121.358;2022-11-27T07:59:36;101460.13;;;7.89;64.24
64967;BME280;51710;38.732;-121.358;2022-11-27T08:02:03;101464.31;;;7.91;63.75
64967;BME280;51710;38.732;-121.358;2022-11-27T08:04:29;101458.81;;;7.94;63.83
64967;BME280;51710;38.732;-121.358;2022-11-27T08:06:56;101461.06;;;7.99;63.68
64967;BME280;51710;38.732;-121.358;2022-11-27T08:09:23;101467.84;;;8.03;64.13
64967;BME280;51710;38.732;-121.358;2022-11-27T08:11:49;101465.41;;;8.11;63.95
64967;BME280;51710;38.732;-121.358;2022-11-27T08:14:16;101469.97;;;8.20;64.27
64967;BME280;51710;38.732;-121.358;2022-11-27T08:16:44;101465.63;;;8.30;63.91
64967;BME280;51710;38.732;-121.358;2022-11-27T08:19:10;101462.97;;;8.41;63.84
64967;BME280;51710;38.732;-121.358;2022-11-27T08:21:37;101457.63;;;8.52;63.87
64967;BME280;51710;38.732;-121.358;2022-11-27T08:24:03;101454.44;;;8.58;63.71
64967;BME280;51710;38.732;-121.358;2022-11-27T08:26:30;101456.63;;;8.53;63.33
64967;BME280;51710;38.732;-121.358;2022-11-27T08:28:56;101449.81;;;8.40;62.83
64967;BME280;51710;38.732;-121.358;2022-11-27T08:31:23;101460.56;;;8.27;63.19
64967;BME280;51710;38.732;-121.358;2022-11-27T08:33:50;101466.34;;;8.21;63.58
64967;BME280;51710;38.732;-121.358;2022-11-27T08:36:16;101459.88;;;8.14;63.81
64967;BME280;51710;38.732;-121.358;2022-11-27T08:38:43;101459.50;;;8.08;63.89
64967;BME280;51710;38.732;-121.358;2022-11-27T08:41:09;101456.97;;;8.06;63.83
64967;BME280;51710;38.732;-121.358;2022-11-27T08:43:36;101456.25;;;8.04;64.02
64967;BME280;51710;38.732;-121.358;2022-11-27T08:46:04;101461.59;;;7.93;63.67
64967;BME280;51710;38.732;-121.358;2022-11-27T08:48:31;101462.06;;;7.87;63.68
64967;BME280;51710;38.732;-121.358;2022-11-27T08:50:57;101454.09;;;7.76;63.79
64967;BME280;51710;38.732;-121.358;2022-11-27T08:53:24;101454.94;;;7.65;63.99
64967;BME280;51710;38.732;-121.358;2022-11-27T08:55:50;101451.59;;;7.52;63.95
64967;BME280;51710;38.732;-121.358;2022-11-27T08:58:17;101456.97;;;7.40;64.49
64967;BME280;51710;38.732;-121.358;2022-11-27T09:00:43;101459.41;;;7.32;64.30
64967;BME280;51710;38.732;-121.358;2022-11-27T09:03:10;101456.38;;;7.25;64.81
64967;BME280;51710;38.732;-121.358;2022-11-27T09:05:41;101460.56;;;7.17;64.33
64967;BME280;51710;38.732;-121.358;2022-11-27T09:08:08;101458.38;;;7.11;64.73
64967;BME280;51710;38.732;-121.358;2022-11-27T09:10:37;101457.91;;;7.06;65.03
64967;BME280;51710;38.732;-121.358;2022-11-27T09:13:03;101452.59;;;7.06;65.00
64967;BME280;51710;38.732;-121.358;2022-11-27T09:15:30;101455.97;;;7.08;64.77
64967;BME280;51710;38.732;-121.358;2022-11-27T09:17:57;101462.84;;;7.10;65.00
64967;BME280;51710;38.732;-121.358;2022-11-27T09:20:23;101469.97;;;7.21;65.86
64967;BME280;51710;38.732;-121.358;2022-11-27T09:22:49;101465.63;;;7.31;65.90
64967;BME280;51710;38.732;-121.358;2022-11-27T09:25:16;101464.94;;;7.40;65.32
64967;BME280;51710;38.732;-121.358;2022-11-27T09:27:42;101464.97;;;7.51;65.47
64967;BME280;51710;38.732;-121.358;2022-11-27T09:30:09;101462.53;;;7.59;65.12
64967;BME280;51710;38.732;-121.358;2022-11-27T09:32:36;101463.03;;;7.53;64.63
64967;BME280;51710;38.732;-121.358;2022-11-27T09:35:02;101463.38;;;7.37;64.55
64967;BME280;51710;38.732;-121.358;2022-11-27T09:37:29;101472.59;;;7.21;64.47
64967;BME280;51710;38.732;-121.358;2022-11-27T09:39:56;101465.97;;;7.04;64.44
64967;BME280;51710;38.732;-121.358;2022-11-27T09:42:52;101468.81;;;6.90;64.74
64967;BME280;51710;38.732;-121.358;2022-11-27T09:45:21;101476.34;;;6.83;64.87
64967;BME280;51710;38.732;-121.358;2022-11-27T09:48:02;101471.41;;;6.79;64.94
64967;BME280;51710;38.732;-121.358;2022-11-27T09:50:34;101473.78;;;6.71;65.53
64967;BME280;51710;38.732;-121.358;2022-11-27T09:53:12;101477.63;;;6.67;65.60
64967;BME280;51710;38.732;-121.358;2022-11-27T09:55:46;101486.56;;;6.53;65.62
64967;BME280;51710;38.732;-121.358;2022-11-27T10:00:46;101496.13;;;6.43;66.44
64967;BME280;51710;38.732;-121.358;2022-11-27T10:03:20;101504.69;;;6.47;66.23
64967;BME280;51710;38.732;-121.358;2022-11-27T10:06:05;101507.25;;;6.48;66.40
64967;BME280;51710;38.732;-121.358;2022-11-27T10:15:14;101520.91;;;6.42;65.85
64967;BME280;51710;38.732;-121.358;2022-11-27T10:17:48;101510.22;;;6.31;65.76
64967;BME280;51710;38.732;-121.358;2022-11-27T10:23:26;101500.06;;;6.02;66.24
64967;BME280;51710;38.732;-121.358;2022-11-27T10:26:18;101500.81;;;5.91;66.46
64967;BME280;51710;38.732;-121.358;2022-11-27T10:34:03;101492.69;;;5.69;67.28
64967;BME280;51710;38.732;-121.358;2022-11-27T10:36:36;101493.94;;;5.63;67.54
64967;BME280;51710;38.732;-121.358;2022-11-27T10:39:08;101491.13;;;5.54;68.04
64967;BME280;51710;38.732;-121.358;2022-11-27T10:41:49;101490.59;;;5.49;68.11
64967;BME280;51710;38.732;-121.358;2022-11-27T10:44:29;101490.59;;;5.49;68.59
64967;BME280;51710;38.732;-121.358;2022-11-27T10:47:07;101494.28;;;5.59;68.52
64967;BME280;51710;38.732;-121.358;2022-11-27T10:49:39;101486.75;;;5.65;68.69
64967;BME280;51710;38.732;-121.358;2022-11-27T10:52:12;101498.06;;;5.67;67.96
64967;BME280;51710;38.732;-121.358;2022-11-27T10:54:40;101497.84;;;5.70;67.85
64967;BME280;51710;38.732;-121.358;2022-11-27T10:59:50;101505.88;;;5.69;68.09
64967;BME280;51710;38.732;-121.358;2022-11-27T11:02:32;101516.47;;;5.69;68.18
64967;BME280;51710;38.732;-121.358;2022-11-27T11:05:20;101528.63;;;5.71;68.33
64967;BME280;51710;38.732;-121.358;2022-11-27T11:08:05;101530.19;;;5.74;68.13
64967;BME280;51710;38.732;-121.358;2022-11-27T11:10:49;101536.44;;;5.73;68.10
64967;BME280;51710;38.732;-121.358;2022-11-27T11:13:21;101548.69;;;5.74;68.40
64967;BME280;51710;38.732;-121.358;2022-11-27T11:18:29;101546.91;;;5.74;68.50
64967;BME280;51710;38.732;-121.358;2022-11-27T11:21:05;101556.31;;;5.79;68.35
64967;BME280;51710;38.732;-121.358;2022-11-27T11:23:40;101560.34;;;5.84;68.51
64967;BME280;51710;38.732;-121.358;2022-11-27T11:26:25;101560.88;;;5.89;68.44
64967;BME280;51710;38.732;-121.358;2022-11-27T11:28:55;101563.09;;;5.95;68.35
64967;BME280;51710;38.732;-121.358;2022-11-27T11:31:29;101557.38;;;6.01;68.33
64967;BME280;51710;38.732;-121.358;2022-11-27T11:34:26;101565.72;;;6.08;68.67
64967;BME280;51710;38.732;-121.358;2022-11-27T11:37:35;101568.59;;;6.05;68.38
64967;BME280;51710;38.732;-121.358;2022-11-27T11:43:02;101577.56;;;6.02;68.14
64967;BME280;51710;38.732;-121.358;2022-11-27T11:45:32;101574.06;;;6.02;68.38
64967;BME280;51710;38.732;-121.358;2022-11-27T11:48:01;101569.97;;;5.98;68.03
64967;BME280;51710;38.732;-121.358;2022-11-27T11:51:02;101559.91;;;5.90;68.24
64967;BME280;51710;38.732;-121.358;2022-11-27T11:53:42;101562.22;;;5.82;68.11
64967;BME280;51710;38.732;-121.358;2022-11-27T11:58:58;101564.75;;;5.71;68.41
64967;BME280;51710;38.732;-121.358;2022-11-27T12:01:35;101556.31;;;5.66;68.49
64967;BME280;51710;38.732;-121.358;2022-11-27T12:09:45;101548.28;;;5.80;68.89
64967;BME280;51710;38.732;-121.358;2022-11-27T12:21:15;101539.38;;;5.81;68.32
64967;BME280;51710;38.732;-121.358;2022-11-27T12:23:49;101535.63;;;5.85;68.48
64967;BME280;51710;38.732;-121.358;2022-11-27T12:26:40;101533.50;;;5.90;68.54
64967;BME280;51710;38.732;-121.358;2022-11-27T12:30:08;101524.81;;;5.88;68.30
64967;BME280;51710;38.732;-121.358;2022-11-27T12:35:20;101535.47;;;5.74;67.85
64967;BME280;51710;38.732;-121.358;2022-11-27T12:40:39;101532.53;;;5.79;68.39
64967;BME280;51710;38.732;-121.358;2022-11-27T12:43:27;101532.00;;;5.86;68.29
64967;BME280;51710;38.732;-121.358;2022-11-27T12:46:12;101526.31;;;5.92;68.56
64967;BME280;51710;38.732;-121.358;2022-11-27T12:48:46;101526.50;;;6.02;68.80
64967;BME280;51710;38.732;-121.358;2022-11-27T12:51:23;101526.69;;;6.11;68.44
64967;BME280;51710;38.732;-121.358;2022-11-27T12:54:01;101527.41;;;6.26;69.07
64967;BME280;51710;38.732;-121.358;2022-11-27T12:56:47;101538.66;;;6.40;68.86
64967;BME280;51710;38.732;-121.358;2022-11-27T12:59:27;101536.72;;;6.55;68.43
64967;BME280;51710;38.732;-121.358;2022-11-27T13:07:35;101534.88;;;6.92;67.76
64967;BME280;51710;38.732;-121.358;2022-11-27T13:10:17;101534.91;;;7.03;67.81
64967;BME280;51710;38.732;-121.358;2022-11-27T13:12:52;101533.47;;;7.10;67.47
64967;BME280;51710;38.732;-121.358;2022-11-27T13:15:25;101527.50;;;7.19;66.95
64967;BME280;51710;38.732;-121.358;2022-11-27T13:20:47;101530.44;;;7.27;66.57
64967;BME280;51710;38.732;-121.358;2022-11-27T13:23:14;101531.88;;;7.31;66.61
64967;BME280;51710;38.732;-121.358;2022-11-27T13:25:53;101529.00;;;7.34;66.62
64967;BME280;51710;38.732;-121.358;2022-11-27T13:28:38;101526.09;;;7.37;66.54
64967;BME280;51710;38.732;-121.358;2022-11-27T13:31:07;101539.25;;;7.38;66.66
64967;BME280;51710;38.732;-121.358;2022-11-27T13:33:42;101535.00;;;7.36;66.26
64967;BME280;51710;38.732;-121.358;2022-11-27T13:36:25;101533.31;;;7.35;66.56
64967;BME280;51710;38.732;-121.358;2022-11-27T13:39:00;101536.94;;;7.34;65.79
64967;BME280;51710;38.732;-121.358;2022-11-27T13:41:36;101539.81;;;7.31;65.77
64967;BME280;51710;38.732;-121.358;2022-11-27T13:44:40;101565.16;;;7.11;65.82
64967;BME280;51710;38.732;-121.358;2022-11-27T13:47:14;101571.88;;;6.80;66.17
64967;BME280;51710;38.732;-121.358;2022-11-27T13:49:42;101574.38;;;6.58;66.42
64967;BME280;51710;38.732;-121.358;2022-11-27T13:52:15;101575.69;;;6.40;67.21
64967;BME280;51710;38.732;-121.358;2022-11-27T13:54:56;101578.59;;;6.25;67.06
64967;BME280;51710;38.732;-121.358;2022-11-27T13:57:23;101576.41;;;6.19;67.41
64967;BME280;51710;38.732;-121.358;2022-11-27T14:00:10;101589.06;;;6.14;67.81
64967;BME280;51710;38.732;-121.358;2022-11-27T14:02:49;101589.94;;;6.14;68.01
64967;BME280;51710;38.732;-121.358;2022-11-27T14:05:33;101585.28;;;6.18;67.90
64967;BME280;51710;38.732;-121.358;2022-11-27T14:08:01;101578.72;;;6.23;67.93
64967;BME280;51710;38.732;-121.358;2022-11-27T14:10:31;101583.78;;;6.26;67.76
64967;BME280;51710;38.732;-121.358;2022-11-27T14:13:04;101585.91;;;6.21;67.94